KCOD/COD METAR and TAF weather

Enter ICAO airport designator
Station Type Date Time Source
KCOD METAR 2018/10/19 14:56 UTC NOAA

KCOD 191456Z AUTO 26004KT 10SM CLR 08/M03 A3038 RMK AO2 SLP289 T00781028 53021


Station Type Date Time Source
KCOD Decoded METAR 2018/10/19 14:56 UTC NOAA

Cody, WY, United States (KCOD) 44-31N 109-01W 1553M
Oct 19, 2018 - 10:56 AM EDT / 2018.10.19 1456 UTC
Wind: from the W (260 degrees) at 5 MPH (4 KT):0
Visibility: 10 mile(s):0
Sky conditions: clear
Temperature: 46.0 F (7.8 C)
Dew Point: 27.0 F (-2.8 C)
Relative Humidity: 47%
Pressure (altimeter): 30.38 in. Hg (1028 hPa)
Pressure tendency: 0.06 inches (2.1 hPa) higher than three hours ago
ob: KCOD 191456Z AUTO 26004KT 10SM CLR 08/M03 A3038 RMK AO2 SLP289 T00781028 53021
cycle: 15

Station Type Date Time Source
KCOD TAF 2018/10/19 12:24 UTC NOAA

TAF KCOD 191123Z 1912/2012 36006KT P6SM SKC
FM191900 04006KT P6SM SKC
FM200200 21006KT P6SM SKC
AMD LTD TO CLD VIS AND WIND


Example: see airport list